sensor_id;sensor_type;location;lat;lon;timestamp;P1;durP1;ratioP1;P2;durP2;ratioP2
7659;SDS011;3872;47.902;8.162;2023-04-03T00:02:15;5.00;;;2.57;;
7659;SDS011;3872;47.902;8.162;2023-04-03T00:04:43;5.27;;;2.60;;
7659;SDS011;3872;47.902;8.162;2023-04-03T00:07:10;4.73;;;2.20;;
7659;SDS011;3872;47.902;8.162;2023-04-03T00:09:37;11.10;;;2.77;;
7659;SDS011;3872;47.902;8.162;2023-04-03T00:12:04;5.50;;;2.77;;
7659;SDS011;3872;47.902;8.162;2023-04-03T00:14:30;5.20;;;2.63;;
7659;SDS011;3872;47.902;8.162;2023-04-03T00:16:58;5.57;;;2.50;;
7659;SDS011;3872;47.902;8.162;2023-04-03T00:19:28;6.27;;;2.80;;
7659;SDS011;3872;47.902;8.162;2023-04-03T00:21:55;4.90;;;2.53;;
7659;SDS011;3872;47.902;8.162;2023-04-03T00:24:22;8.40;;;3.17;;
7659;SDS011;3872;47.902;8.162;2023-04-03T00:26:48;6.10;;;2.90;;
7659;SDS011;3872;47.902;8.162;2023-04-03T00:29:15;4.30;;;2.07;;
7659;SDS011;3872;47.902;8.162;2023-04-03T00:31:42;6.40;;;2.90;;
7659;SDS011;3872;47.902;8.162;2023-04-03T00:34:08;8.60;;;3.00;;
7659;SDS011;3872;47.902;8.162;2023-04-03T00:36:35;6.37;;;2.37;;
7659;SDS011;3872;47.902;8.162;2023-04-03T00:39:03;6.70;;;2.50;;
7659;SDS011;3872;47.902;8.162;2023-04-03T00:41:29;7.03;;;3.30;;
7659;SDS011;3872;47.902;8.162;2023-04-03T00:43:57;7.20;;;2.80;;
7659;SDS011;3872;47.902;8.162;2023-04-03T00:46:23;6.40;;;3.43;;
7659;SDS011;3872;47.902;8.162;2023-04-03T00:48:50;7.13;;;2.97;;
7659;SDS011;3872;47.902;8.162;2023-04-03T00:51:17;6.03;;;2.50;;
7659;SDS011;3872;47.902;8.162;2023-04-03T00:53:49;4.77;;;2.67;;
7659;SDS011;3872;47.902;8.162;2023-04-03T00:56:21;7.37;;;2.63;;
7659;SDS011;3872;47.902;8.162;2023-04-03T00:58:52;5.47;;;2.27;;
7659;SDS011;3872;47.902;8.162;2023-04-03T01:01:24;6.00;;;2.73;;
7659;SDS011;3872;47.902;8.162;2023-04-03T01:03:52;4.20;;;2.07;;
7659;SDS011;3872;47.902;8.162;2023-04-03T01:06:20;4.50;;;2.07;;
7659;SDS011;3872;47.902;8.162;2023-04-03T01:08:51;4.23;;;2.00;;
7659;SDS011;3872;47.902;8.162;2023-04-03T01:11:20;4.40;;;1.90;;
7659;SDS011;3872;47.902;8.162;2023-04-03T01:13:47;3.90;;;1.90;;
7659;SDS011;3872;47.902;8.162;2023-04-03T01:16:14;5.03;;;2.10;;
7659;SDS011;3872;47.902;8.162;2023-04-03T01:18:41;4.20;;;1.90;;
7659;SDS011;3872;47.902;8.162;2023-04-03T01:21:18;4.50;;;1.73;;
7659;SDS011;3872;47.902;8.162;2023-04-03T01:24:11;3.83;;;1.70;;
7659;SDS011;3872;47.902;8.162;2023-04-03T01:26:49;3.80;;;1.50;;
7659;SDS011;3872;47.902;8.162;2023-04-03T01:29:16;4.10;;;1.60;;
7659;SDS011;3872;47.902;8.162;2023-04-03T01:31:51;3.60;;;1.33;;
7659;SDS011;3872;47.902;8.162;2023-04-03T01:34:19;3.70;;;1.60;;
7659;SDS011;3872;47.902;8.162;2023-04-03T01:36:46;5.73;;;2.10;;
7659;SDS011;3872;47.902;8.162;2023-04-03T01:39:13;4.17;;;1.23;;
7659;SDS011;3872;47.902;8.162;2023-04-03T01:41:40;3.53;;;1.30;;
7659;SDS011;3872;47.902;8.162;2023-04-03T01:44:12;3.90;;;1.40;;
7659;SDS011;3872;47.902;8.162;2023-04-03T01:46:39;4.10;;;1.27;;
7659;SDS011;3872;47.902;8.162;2023-04-03T01:49:08;3.80;;;1.30;;
7659;SDS011;3872;47.902;8.162;2023-04-03T01:51:35;4.60;;;1.43;;
7659;SDS011;3872;47.902;8.162;2023-04-03T01:54:02;3.90;;;1.60;;
7659;SDS011;3872;47.902;8.162;2023-04-03T01:56:29;4.03;;;1.90;;
7659;SDS011;3872;47.902;8.162;2023-04-03T01:58:56;3.90;;;1.80;;
7659;SDS011;3872;47.902;8.162;2023-04-03T02:01:23;4.23;;;1.73;;
7659;SDS011;3872;47.902;8.162;2023-04-03T02:03:50;4.00;;;1.70;;
7659;SDS011;3872;47.902;8.162;2023-04-03T02:06:18;3.93;;;1.50;;
7659;SDS011;3872;47.902;8.162;2023-04-03T02:08:45;4.30;;;2.10;;
7659;SDS011;3872;47.902;8.162;2023-04-03T02:11:11;4.47;;;1.57;;
7659;SDS011;3872;47.902;8.162;2023-04-03T02:13:38;4.40;;;1.97;;
7659;SDS011;3872;47.902;8.162;2023-04-03T02:16:08;4.10;;;2.00;;
7659;SDS011;3872;47.902;8.162;2023-04-03T02:18:36;4.60;;;2.40;;
7659;SDS011;3872;47.902;8.162;2023-04-03T02:21:02;3.93;;;1.80;;
7659;SDS011;3872;47.902;8.162;2023-04-03T02:23:31;4.90;;;2.50;;
7659;SDS011;3872;47.902;8.162;2023-04-03T02:26:04;5.17;;;1.97;;
7659;SDS011;3872;47.902;8.162;2023-04-03T02:28:33;5.23;;;2.67;;
7659;SDS011;3872;47.902;8.162;2023-04-03T02:31:00;4.97;;;2.70;;
7659;SDS011;3872;47.902;8.162;2023-04-03T02:33:28;4.30;;;2.27;;
7659;SDS011;3872;47.902;8.162;2023-04-03T02:35:55;5.70;;;3.07;;
7659;SDS011;3872;47.902;8.162;2023-04-03T02:38:23;4.57;;;2.43;;
7659;SDS011;3872;47.902;8.162;2023-04-03T02:40:52;4.90;;;2.70;;
7659;SDS011;3872;47.902;8.162;2023-04-03T02:43:19;4.80;;;2.67;;
7659;SDS011;3872;47.902;8.162;2023-04-03T02:45:45;4.70;;;2.37;;
7659;SDS011;3872;47.902;8.162;2023-04-03T02:48:12;5.40;;;2.80;;
7659;SDS011;3872;47.902;8.162;2023-04-03T02:50:39;5.90;;;2.80;;
7659;SDS011;3872;47.902;8.162;2023-04-03T02:53:06;5.00;;;2.80;;
7659;SDS011;3872;47.902;8.162;2023-04-03T02:55:32;5.57;;;3.00;;
7659;SDS011;3872;47.902;8.162;2023-04-03T02:58:00;5.47;;;3.17;;
7659;SDS011;3872;47.902;8.162;2023-04-03T03:00:28;4.90;;;2.73;;
7659;SDS011;3872;47.902;8.162;2023-04-03T03:02:55;6.63;;;3.30;;
7659;SDS011;3872;47.902;8.162;2023-04-03T03:05:22;5.53;;;3.23;;
7659;SDS011;3872;47.902;8.162;2023-04-03T03:07:48;6.17;;;3.53;;
7659;SDS011;3872;47.902;8.162;2023-04-03T03:10:15;6.27;;;3.73;;
7659;SDS011;3872;47.902;8.162;2023-04-03T03:12:41;6.50;;;3.53;;
7659;SDS011;3872;47.902;8.162;2023-04-03T03:15:10;5.57;;;3.40;;
7659;SDS011;3872;47.902;8.162;2023-04-03T03:17:37;5.70;;;3.50;;
7659;SDS011;3872;47.902;8.162;2023-04-03T03:20:04;7.57;;;4.03;;
7659;SDS011;3872;47.902;8.162;2023-04-03T03:22:32;6.30;;;4.03;;
7659;SDS011;3872;47.902;8.162;2023-04-03T03:25:00;9.27;;;5.00;;
7659;SDS011;3872;47.902;8.162;2023-04-03T03:27:27;6.47;;;3.87;;
7659;SDS011;3872;47.902;8.162;2023-04-03T03:29:54;6.80;;;4.17;;
7659;SDS011;3872;47.902;8.162;2023-04-03T03:32:22;7.20;;;4.13;;
7659;SDS011;3872;47.902;8.162;2023-04-03T03:34:48;6.70;;;3.90;;
7659;SDS011;3872;47.902;8.162;2023-04-03T03:37:15;8.60;;;4.33;;
7659;SDS011;3872;47.902;8.162;2023-04-03T03:39:41;9.23;;;5.10;;
7659;SDS011;3872;47.902;8.162;2023-04-03T03:42:08;7.23;;;4.03;;
7659;SDS011;3872;47.902;8.162;2023-04-03T03:44:35;8.07;;;5.13;;
7659;SDS011;3872;47.902;8.162;2023-04-03T03:47:01;8.07;;;4.00;;
7659;SDS011;3872;47.902;8.162;2023-04-03T03:49:30;9.20;;;5.27;;
7659;SDS011;3872;47.902;8.162;2023-04-03T03:51:57;8.70;;;4.90;;
7659;SDS011;3872;47.902;8.162;2023-04-03T03:54:23;8.53;;;4.40;;
7659;SDS011;3872;47.902;8.162;2023-04-03T03:56:50;6.47;;;4.07;;
7659;SDS011;3872;47.902;8.162;2023-04-03T03:59:17;10.87;;;4.73;;
7659;SDS011;3872;47.902;8.162;2023-04-03T04:01:44;7.27;;;4.37;;
7659;SDS011;3872;47.902;8.162;2023-04-03T04:04:11;9.33;;;4.60;;
7659;SDS011;3872;47.902;8.162;2023-04-03T04:06:39;8.33;;;5.10;;
7659;SDS011;3872;47.902;8.162;2023-04-03T04:09:08;7.97;;;4.90;;
7659;SDS011;3872;47.902;8.162;2023-04-03T04:11:35;8.73;;;5.03;;
7659;SDS011;3872;47.902;8.162;2023-04-03T04:14:02;8.83;;;4.20;;
7659;SDS011;3872;47.902;8.162;2023-04-03T04:16:29;8.13;;;5.00;;
7659;SDS011;3872;47.902;8.162;2023-04-03T04:19:00;11.77;;;5.30;;
7659;SDS011;3872;47.902;8.162;2023-04-03T04:21:27;7.67;;;4.43;;
7659;SDS011;3872;47.902;8.162;2023-04-03T04:23:55;7.03;;;4.50;;
7659;SDS011;3872;47.902;8.162;2023-04-03T04:26:22;6.73;;;4.53;;
7659;SDS011;3872;47.902;8.162;2023-04-03T04:28:49;6.40;;;3.87;;
7659;SDS011;3872;47.902;8.162;2023-04-03T04:31:17;7.60;;;4.60;;
7659;SDS011;3872;47.902;8.162;2023-04-03T04:33:44;6.03;;;3.70;;
7659;SDS011;3872;47.902;8.162;2023-04-03T04:36:17;7.40;;;4.20;;
7659;SDS011;3872;47.902;8.162;2023-04-03T04:38:45;8.60;;;5.10;;
7659;SDS011;3872;47.902;8.162;2023-04-03T04:41:13;9.23;;;5.03;;
7659;SDS011;3872;47.902;8.162;2023-04-03T04:43:41;9.43;;;5.13;;
7659;SDS011;3872;47.902;8.162;2023-04-03T04:46:09;10.33;;;4.90;;
7659;SDS011;3872;47.902;8.162;2023-04-03T04:48:42;11.30;;;5.93;;
7659;SDS011;3872;47.902;8.162;2023-04-03T04:51:10;12.30;;;5.83;;
7659;SDS011;3872;47.902;8.162;2023-04-03T04:53:37;7.67;;;4.73;;
7659;SDS011;3872;47.902;8.162;2023-04-03T04:56:05;8.70;;;5.57;;
7659;SDS011;3872;47.902;8.162;2023-04-03T04:58:34;7.77;;;4.67;;
7659;SDS011;3872;47.902;8.162;2023-04-03T05:01:03;6.77;;;4.23;;
7659;SDS011;3872;47.902;8.162;2023-04-03T05:03:32;9.07;;;4.80;;
7659;SDS011;3872;47.902;8.162;2023-04-03T05:05:59;8.77;;;4.80;;
7659;SDS011;3872;47.902;8.162;2023-04-03T05:08:29;7.80;;;4.47;;
7659;SDS011;3872;47.902;8.162;2023-04-03T05:10:56;9.00;;;4.83;;
7659;SDS011;3872;47.902;8.162;2023-04-03T05:13:24;10.10;;;5.43;;
7659;SDS011;3872;47.902;8.162;2023-04-03T05:15:53;8.60;;;4.50;;
7659;SDS011;3872;47.902;8.162;2023-04-03T05:18:20;9.80;;;4.93;;
7659;SDS011;3872;47.902;8.162;2023-04-03T05:20:48;9.87;;;5.50;;
7659;SDS011;3872;47.902;8.162;2023-04-03T05:23:17;9.13;;;5.07;;
7659;SDS011;3872;47.902;8.162;2023-04-03T05:25:45;12.10;;;6.40;;
7659;SDS011;3872;47.902;8.162;2023-04-03T05:28:13;9.23;;;5.43;;
7659;SDS011;3872;47.902;8.162;2023-04-03T05:30:40;12.27;;;5.90;;
7659;SDS011;3872;47.902;8.162;2023-04-03T05:33:09;8.10;;;5.50;;
7659;SDS011;3872;47.902;8.162;2023-04-03T05:35:42;12.60;;;5.67;;
7659;SDS011;3872;47.902;8.162;2023-04-03T05:38:13;21.03;;;6.27;;
7659;SDS011;3872;47.902;8.162;2023-04-03T05:40:40;56.90;;;9.27;;
7659;SDS011;3872;47.902;8.162;2023-04-03T05:43:06;13.77;;;6.60;;
7659;SDS011;3872;47.902;8.162;2023-04-03T05:45:36;8.20;;;4.67;;
7659;SDS011;3872;47.902;8.162;2023-04-03T05:48:03;10.80;;;5.07;;
7659;SDS011;3872;47.902;8.162;2023-04-03T05:50:32;15.10;;;4.80;;
7659;SDS011;3872;47.902;8.162;2023-04-03T05:52:58;35.77;;;6.00;;
7659;SDS011;3872;47.902;8.162;2023-04-03T05:55:30;6.50;;;4.43;;
7659;SDS011;3872;47.902;8.162;2023-04-03T05:57:56;7.07;;;4.00;;
7659;SDS011;3872;47.902;8.162;2023-04-03T06:00:23;8.30;;;4.23;;
7659;SDS011;3872;47.902;8.162;2023-04-03T06:02:59;7.53;;;4.33;;
7659;SDS011;3872;47.902;8.162;2023-04-03T06:05:25;7.90;;;3.90;;
7659;SDS011;3872;47.902;8.162;2023-04-03T06:07:53;7.20;;;4.20;;
7659;SDS011;3872;47.902;8.162;2023-04-03T06:10:20;7.53;;;3.93;;
7659;SDS011;3872;47.902;8.162;2023-04-03T06:12:46;6.70;;;3.57;;
7659;SDS011;3872;47.902;8.162;2023-04-03T06:15:13;5.47;;;3.40;;
7659;SDS011;3872;47.902;8.162;2023-04-03T06:17:40;22.57;;;5.10;;
7659;SDS011;3872;47.902;8.162;2023-04-03T06:20:07;12.97;;;4.03;;
7659;SDS011;3872;47.902;8.162;2023-04-03T06:22:34;12.63;;;3.20;;
7659;SDS011;3872;47.902;8.162;2023-04-03T06:25:03;17.03;;;4.70;;
7659;SDS011;3872;47.902;8.162;2023-04-03T06:27:30;7.10;;;2.77;;
7659;SDS011;3872;47.902;8.162;2023-04-03T06:29:56;9.93;;;3.50;;
7659;SDS011;3872;47.902;8.162;2023-04-03T06:32:23;8.00;;;3.20;;
7659;SDS011;3872;47.902;8.162;2023-04-03T06:34:50;12.67;;;4.50;;
7659;SDS011;3872;47.902;8.162;2023-04-03T06:37:19;7.13;;;3.87;;
7659;SDS011;3872;47.902;8.162;2023-04-03T06:39:48;8.17;;;4.90;;
7659;SDS011;3872;47.902;8.162;2023-04-03T06:42:16;8.50;;;4.20;;
7659;SDS011;3872;47.902;8.162;2023-04-03T06:44:51;8.13;;;3.73;;
7659;SDS011;3872;47.902;8.162;2023-04-03T06:47:18;6.27;;;3.93;;
7659;SDS011;3872;47.902;8.162;2023-04-03T06:49:45;7.20;;;3.80;;
7659;SDS011;3872;47.902;8.162;2023-04-03T06:52:11;13.00;;;4.60;;
7659;SDS011;3872;47.902;8.162;2023-04-03T06:54:38;7.10;;;4.50;;
7659;SDS011;3872;47.902;8.162;2023-04-03T06:57:05;6.90;;;3.87;;
7659;SDS011;3872;47.902;8.162;2023-04-03T06:59:34;7.63;;;3.70;;
7659;SDS011;3872;47.902;8.162;2023-04-03T07:02:01;8.90;;;4.27;;
7659;SDS011;3872;47.902;8.162;2023-04-03T07:04:28;7.97;;;4.10;;
7659;SDS011;3872;47.902;8.162;2023-04-03T07:06:55;7.20;;;3.87;;
7659;SDS011;3872;47.902;8.162;2023-04-03T07:09:21;8.93;;;4.13;;
7659;SDS011;3872;47.902;8.162;2023-04-03T07:11:48;8.37;;;4.07;;
7659;SDS011;3872;47.902;8.162;2023-04-03T07:14:14;8.83;;;4.47;;
7659;SDS011;3872;47.902;8.162;2023-04-03T07:16:42;8.10;;;5.03;;
7659;SDS011;3872;47.902;8.162;2023-04-03T07:19:08;8.40;;;4.50;;
7659;SDS011;3872;47.902;8.162;2023-04-03T07:21:35;6.40;;;3.87;;
7659;SDS011;3872;47.902;8.162;2023-04-03T07:24:01;8.10;;;4.90;;
7659;SDS011;3872;47.902;8.162;2023-04-03T07:26:28;8.93;;;4.90;;
7659;SDS011;3872;47.902;8.162;2023-04-03T07:28:55;7.23;;;4.57;;
7659;SDS011;3872;47.902;8.162;2023-04-03T07:31:22;8.10;;;5.10;;
7659;SDS011;3872;47.902;8.162;2023-04-03T07:33:50;7.83;;;4.27;;
7659;SDS011;3872;47.902;8.162;2023-04-03T07:36:17;8.87;;;4.50;;
7659;SDS011;3872;47.902;8.162;2023-04-03T07:38:46;8.53;;;4.80;;
7659;SDS011;3872;47.902;8.162;2023-04-03T07:41:13;10.80;;;4.70;;
7659;SDS011;3872;47.902;8.162;2023-04-03T07:43:42;7.70;;;4.67;;
7659;SDS011;3872;47.902;8.162;2023-04-03T07:46:09;7.33;;;4.40;;
7659;SDS011;3872;47.902;8.162;2023-04-03T07:48:35;8.90;;;4.67;;
7659;SDS011;3872;47.902;8.162;2023-04-03T07:51:04;9.20;;;5.23;;
7659;SDS011;3872;47.902;8.162;2023-04-03T07:53:31;11.00;;;5.00;;
7659;SDS011;3872;47.902;8.162;2023-04-03T07:55:58;9.73;;;4.80;;
7659;SDS011;3872;47.902;8.162;2023-04-03T07:58:26;6.70;;;4.63;;
7659;SDS011;3872;47.902;8.162;2023-04-03T08:00:53;14.10;;;5.07;;
7659;SDS011;3872;47.902;8.162;2023-04-03T08:03:19;9.30;;;5.10;;
7659;SDS011;3872;47.902;8.162;2023-04-03T08:05:47;6.27;;;3.60;;
7659;SDS011;3872;47.902;8.162;2023-04-03T08:08:17;8.67;;;3.90;;
7659;SDS011;3872;47.902;8.162;2023-04-03T08:10:47;7.17;;;3.83;;
7659;SDS011;3872;47.902;8.162;2023-04-03T08:13:15;8.83;;;4.37;;
7659;SDS011;3872;47.902;8.162;2023-04-03T08:15:41;11.73;;;4.80;;
7659;SDS011;3872;47.902;8.162;2023-04-03T08:18:08;10.53;;;4.50;;
7659;SDS011;3872;47.902;8.162;2023-04-03T08:20:35;6.17;;;3.93;;
7659;SDS011;3872;47.902;8.162;2023-04-03T08:23:03;12.47;;;3.80;;
7659;SDS011;3872;47.902;8.162;2023-04-03T08:25:31;8.00;;;3.97;;
7659;SDS011;3872;47.902;8.162;2023-04-03T08:27:58;10.17;;;4.47;;
7659;SDS011;3872;47.902;8.162;2023-04-03T08:30:24;7.07;;;3.80;;
7659;SDS011;3872;47.902;8.162;2023-04-03T08:32:51;8.40;;;4.57;;
7659;SDS011;3872;47.902;8.162;2023-04-03T08:35:18;7.70;;;4.33;;
7659;SDS011;3872;47.902;8.162;2023-04-03T08:37:45;6.10;;;3.50;;
7659;SDS011;3872;47.902;8.162;2023-04-03T08:40:13;5.40;;;3.10;;
7659;SDS011;3872;47.902;8.162;2023-04-03T08:42:45;7.50;;;3.73;;
7659;SDS011;3872;47.902;8.162;2023-04-03T08:45:22;6.40;;;3.77;;
7659;SDS011;3872;47.902;8.162;2023-04-03T08:47:55;5.53;;;2.90;;
7659;SDS011;3872;47.902;8.162;2023-04-03T08:50:33;12.73;;;5.07;;
7659;SDS011;3872;47.902;8.162;2023-04-03T08:53:05;5.73;;;2.97;;
7659;SDS011;3872;47.902;8.162;2023-04-03T08:55:39;5.30;;;2.53;;
7659;SDS011;3872;47.902;8.162;2023-04-03T08:58:11;6.07;;;2.73;;
7659;SDS011;3872;47.902;8.162;2023-04-03T09:00:43;4.87;;;2.43;;
7659;SDS011;3872;47.902;8.162;2023-04-03T09:03:12;10.80;;;3.17;;
7659;SDS011;3872;47.902;8.162;2023-04-03T09:05:42;5.03;;;2.53;;
7659;SDS011;3872;47.902;8.162;2023-04-03T09:08:16;5.03;;;2.20;;
7659;SDS011;3872;47.902;8.162;2023-04-03T09:10:47;5.10;;;2.40;;
7659;SDS011;3872;47.902;8.162;2023-04-03T09:13:19;5.67;;;2.50;;
7659;SDS011;3872;47.902;8.162;2023-04-03T09:15:53;6.20;;;2.77;;
7659;SDS011;3872;47.902;8.162;2023-04-03T09:18:20;5.37;;;2.40;;
7659;SDS011;3872;47.902;8.162;2023-04-03T09:20:53;6.60;;;2.60;;
7659;SDS011;3872;47.902;8.162;2023-04-03T09:23:28;6.07;;;2.97;;
7659;SDS011;3872;47.902;8.162;2023-04-03T09:26:01;4.90;;;2.13;;
7659;SDS011;3872;47.902;8.162;2023-04-03T09:28:33;4.73;;;2.37;;
7659;SDS011;3872;47.902;8.162;2023-04-03T09:31:05;4.80;;;2.23;;
7659;SDS011;3872;47.902;8.162;2023-04-03T09:33:42;6.10;;;2.27;;
7659;SDS011;3872;47.902;8.162;2023-04-03T09:36:10;11.53;;;2.47;;
7659;SDS011;3872;47.902;8.162;2023-04-03T09:38:37;4.87;;;2.83;;
7659;SDS011;3872;47.902;8.162;2023-04-03T09:41:05;4.80;;;2.70;;
7659;SDS011;3872;47.902;8.162;2023-04-03T09:43:34;4.60;;;2.80;;
7659;SDS011;3872;47.902;8.162;2023-04-03T09:46:17;4.67;;;2.30;;
7659;SDS011;3872;47.902;8.162;2023-04-03T09:48:50;4.70;;;2.33;;
7659;SDS011;3872;47.902;8.162;2023-04-03T09:51:18;4.90;;;2.77;;
7659;SDS011;3872;47.902;8.162;2023-04-03T09:53:44;5.90;;;2.80;;
7659;SDS011;3872;47.902;8.162;2023-04-03T09:56:21;4.50;;;2.40;;
7659;SDS011;3872;47.902;8.162;2023-04-03T09:58:53;5.10;;;2.57;;
7659;SDS011;3872;47.902;8.162;2023-04-03T10:01:42;5.13;;;3.07;;
7659;SDS011;3872;47.902;8.162;2023-04-03T10:04:22;5.80;;;2.67;;
7659;SDS011;3872;47.902;8.162;2023-04-03T10:06:50;4.43;;;2.23;;
7659;SDS011;3872;47.902;8.162;2023-04-03T10:09:19;4.57;;;2.37;;
7659;SDS011;3872;47.902;8.162;2023-04-03T10:11:57;5.63;;;2.90;;
7659;SDS011;3872;47.902;8.162;2023-04-03T10:14:27;4.30;;;2.30;;
7659;SDS011;3872;47.902;8.162;2023-04-03T10:16:57;4.00;;;2.13;;
7659;SDS011;3872;47.902;8.162;2023-04-03T10:19:33;4.27;;;2.10;;
7659;SDS011;3872;47.902;8.162;2023-04-03T10:22:08;4.90;;;2.67;;
7659;SDS011;3872;47.902;8.162;2023-04-03T10:24:44;4.30;;;1.90;;
7659;SDS011;3872;47.902;8.162;2023-04-03T10:27:18;4.57;;;2.67;;
7659;SDS011;3872;47.902;8.162;2023-04-03T10:29:59;6.00;;;2.93;;
7659;SDS011;3872;47.902;8.162;2023-04-03T10:32:48;4.47;;;2.33;;
7659;SDS011;3872;47.902;8.162;2023-04-03T10:35:25;4.77;;;2.17;;
7659;SDS011;3872;47.902;8.162;2023-04-03T10:38:04;6.17;;;3.00;;
7659;SDS011;3872;47.902;8.162;2023-04-03T10:40:39;4.50;;;2.43;;
7659;SDS011;3872;47.902;8.162;2023-04-03T10:43:15;4.60;;;2.57;;
7659;SDS011;3872;47.902;8.162;2023-04-03T10:45:53;4.93;;;2.60;;
7659;SDS011;3872;47.902;8.162;2023-04-03T10:51:17;6.30;;;2.30;;
7659;SDS011;3872;47.902;8.162;2023-04-03T10:53:52;5.00;;;2.47;;
7659;SDS011;3872;47.902;8.162;2023-04-03T10:56:25;5.87;;;2.60;;
7659;SDS011;3872;47.902;8.162;2023-04-03T10:58:58;4.03;;;2.10;;
7659;SDS011;3872;47.902;8.162;2023-04-03T11:01:34;7.17;;;2.70;;
7659;SDS011;3872;47.902;8.162;2023-04-03T11:04:05;4.33;;;2.23;;
7659;SDS011;3872;47.902;8.162;2023-04-03T11:06:34;4.60;;;2.47;;
7659;SDS011;3872;47.902;8.162;2023-04-03T11:09:05;6.97;;;3.07;;
7659;SDS011;3872;47.902;8.162;2023-04-03T11:11:41;6.20;;;2.53;;
7659;SDS011;3872;47.902;8.162;2023-04-03T11:14:09;4.50;;;2.13;;
7659;SDS011;3872;47.902;8.162;2023-04-03T11:16:43;4.37;;;2.37;;
7659;SDS011;3872;47.902;8.162;2023-04-03T11:19:15;5.43;;;2.90;;
7659;SDS011;3872;47.902;8.162;2023-04-03T11:21:50;4.87;;;2.60;;
7659;SDS011;3872;47.902;8.162;2023-04-03T11:24:22;7.57;;;2.40;;
7659;SDS011;3872;47.902;8.162;2023-04-03T11:26:51;5.90;;;2.73;;
7659;SDS011;3872;47.902;8.162;2023-04-03T11:29:20;5.50;;;2.27;;
7659;SDS011;3872;47.902;8.162;2023-04-03T11:31:58;5.60;;;2.83;;
7659;SDS011;3872;47.902;8.162;2023-04-03T11:34:34;5.67;;;2.63;;
7659;SDS011;3872;47.902;8.162;2023-04-03T11:37:05;4.80;;;2.63;;
7659;SDS011;3872;47.902;8.162;2023-04-03T11:39:37;4.90;;;2.50;;
7659;SDS011;3872;47.902;8.162;2023-04-03T11:42:13;5.20;;;2.73;;
7659;SDS011;3872;47.902;8.162;2023-04-03T11:44:42;4.97;;;2.63;;
7659;SDS011;3872;47.902;8.162;2023-04-03T11:47:11;5.77;;;3.03;;
7659;SDS011;3872;47.902;8.162;2023-04-03T11:49:58;6.40;;;3.00;;
7659;SDS011;3872;47.902;8.162;2023-04-03T11:55:41;6.20;;;3.60;;
7659;SDS011;3872;47.902;8.162;2023-04-03T11:58:18;5.50;;;2.70;;
7659;SDS011;3872;47.902;8.162;2023-04-03T12:09:29;5.67;;;3.17;;
7659;SDS011;3872;47.902;8.162;2023-04-03T12:12:33;5.30;;;2.80;;
7659;SDS011;3872;47.902;8.162;2023-04-03T12:15:22;5.63;;;2.70;;
7659;SDS011;3872;47.902;8.162;2023-04-03T12:17:52;11.93;;;2.67;;
7659;SDS011;3872;47.902;8.162;2023-04-03T12:23:27;10.60;;;2.90;;
7659;SDS011;3872;47.902;8.162;2023-04-03T12:25:59;5.80;;;2.67;;
7659;SDS011;3872;47.902;8.162;2023-04-03T12:28:30;7.63;;;3.30;;
7659;SDS011;3872;47.902;8.162;2023-04-03T12:31:03;5.67;;;3.13;;
7659;SDS011;3872;47.902;8.162;2023-04-03T12:33:34;6.13;;;3.20;;
7659;SDS011;3872;47.902;8.162;2023-04-03T12:36:09;5.90;;;2.80;;
7659;SDS011;3872;47.902;8.162;2023-04-03T12:38:45;4.67;;;2.53;;
7659;SDS011;3872;47.902;8.162;2023-04-03T12:41:27;6.80;;;2.77;;
7659;SDS011;3872;47.902;8.162;2023-04-03T12:44:09;4.37;;;2.63;;
7659;SDS011;3872;47.902;8.162;2023-04-03T12:46:58;9.90;;;2.87;;
7659;SDS011;3872;47.902;8.162;2023-04-03T12:49:30;4.80;;;2.50;;
7659;SDS011;3872;47.902;8.162;2023-04-03T12:52:03;4.77;;;2.50;;
7659;SDS011;3872;47.902;8.162;2023-04-03T12:54:35;4.87;;;2.63;;
7659;SDS011;3872;47.902;8.162;2023-04-03T12:57:11;4.80;;;2.20;;
7659;SDS011;3872;47.902;8.162;2023-04-03T12:59:38;5.80;;;2.47;;
7659;SDS011;3872;47.902;8.162;2023-04-03T13:02:12;4.37;;;2.70;;
7659;SDS011;3872;47.902;8.162;2023-04-03T13:04:45;4.90;;;2.60;;
7659;SDS011;3872;47.902;8.162;2023-04-03T13:07:18;5.20;;;2.80;;
7659;SDS011;3872;47.902;8.162;2023-04-03T13:09:56;6.53;;;2.60;;
7659;SDS011;3872;47.902;8.162;2023-04-03T13:12:24;6.00;;;3.10;;
7659;SDS011;3872;47.902;8.162;2023-04-03T13:14:54;6.90;;;2.60;;
7659;SDS011;3872;47.902;8.162;2023-04-03T13:17:23;5.23;;;3.20;;
7659;SDS011;3872;47.902;8.162;2023-04-03T13:19:52;5.97;;;2.80;;
7659;SDS011;3872;47.902;8.162;2023-04-03T13:22:24;5.00;;;2.80;;
7659;SDS011;3872;47.902;8.162;2023-04-03T13:24:58;6.87;;;2.63;;
7659;SDS011;3872;47.902;8.162;2023-04-03T13:27:27;4.87;;;2.70;;
7659;SDS011;3872;47.902;8.162;2023-04-03T13:29:57;6.03;;;2.80;;
7659;SDS011;3872;47.902;8.162;2023-04-03T13:32:26;6.20;;;3.20;;
7659;SDS011;3872;47.902;8.162;2023-04-03T13:34:55;5.50;;;2.70;;
7659;SDS011;3872;47.902;8.162;2023-04-03T13:37:23;10.83;;;3.20;;
7659;SDS011;3872;47.902;8.162;2023-04-03T13:40:01;4.83;;;2.57;;
7659;SDS011;3872;47.902;8.162;2023-04-03T13:42:30;5.73;;;3.40;;
7659;SDS011;3872;47.902;8.162;2023-04-03T13:45:09;6.40;;;3.10;;
7659;SDS011;3872;47.902;8.162;2023-04-03T13:47:38;5.57;;;2.70;;
7659;SDS011;3872;47.902;8.162;2023-04-03T13:50:14;4.83;;;2.50;;
7659;SDS011;3872;47.902;8.162;2023-04-03T13:52:43;4.27;;;2.50;;
7659;SDS011;3872;47.902;8.162;2023-04-03T13:55:17;6.23;;;3.10;;
7659;SDS011;3872;47.902;8.162;2023-04-03T13:57:52;7.53;;;3.47;;
7659;SDS011;3872;47.902;8.162;2023-04-03T14:00:32;6.80;;;3.80;;
7659;SDS011;3872;47.902;8.162;2023-04-03T14:03:02;6.70;;;3.37;;
7659;SDS011;3872;47.902;8.162;2023-04-03T14:05:37;5.70;;;2.50;;
7659;SDS011;3872;47.902;8.162;2023-04-03T14:08:04;5.90;;;2.83;;
7659;SDS011;3872;47.902;8.162;2023-04-03T14:10:33;6.93;;;2.93;;
7659;SDS011;3872;47.902;8.162;2023-04-03T14:13:01;8.37;;;2.60;;
7659;SDS011;3872;47.902;8.162;2023-04-03T14:15:28;7.77;;;3.70;;
7659;SDS011;3872;47.902;8.162;2023-04-03T14:17:57;5.50;;;3.33;;
7659;SDS011;3872;47.902;8.162;2023-04-03T14:20:25;9.30;;;3.87;;
7659;SDS011;3872;47.902;8.162;2023-04-03T14:22:52;6.23;;;3.30;;
7659;SDS011;3872;47.902;8.162;2023-04-03T14:25:20;5.63;;;2.80;;
7659;SDS011;3872;47.902;8.162;2023-04-03T14:27:50;5.20;;;3.00;;
7659;SDS011;3872;47.902;8.162;2023-04-03T14:30:20;4.37;;;2.90;;
7659;SDS011;3872;47.902;8.162;2023-04-03T14:32:48;6.47;;;2.83;;
7659;SDS011;3872;47.902;8.162;2023-04-03T14:35:15;4.50;;;2.87;;
7659;SDS011;3872;47.902;8.162;2023-04-03T14:37:43;5.40;;;2.80;;
7659;SDS011;3872;47.902;8.162;2023-04-03T14:40:14;5.57;;;3.00;;
7659;SDS011;3872;47.902;8.162;2023-04-03T14:42:43;8.60;;;3.20;;
7659;SDS011;3872;47.902;8.162;2023-04-03T14:45:13;6.03;;;2.40;;
7659;SDS011;3872;47.902;8.162;2023-04-03T14:47:42;5.83;;;2.67;;
7659;SDS011;3872;47.902;8.162;2023-04-03T14:50:14;5.47;;;2.67;;
7659;SDS011;3872;47.902;8.162;2023-04-03T14:52:42;4.93;;;2.93;;
7659;SDS011;3872;47.902;8.162;2023-04-03T14:55:11;5.07;;;2.97;;
7659;SDS011;3872;47.902;8.162;2023-04-03T14:57:38;8.23;;;3.00;;
7659;SDS011;3872;47.902;8.162;2023-04-03T15:00:07;4.87;;;2.90;;
7659;SDS011;3872;47.902;8.162;2023-04-03T15:02:39;7.07;;;2.43;;
7659;SDS011;3872;47.902;8.162;2023-04-03T15:05:07;6.70;;;2.70;;
7659;SDS011;3872;47.902;8.162;2023-04-03T15:07:37;4.77;;;2.77;;
7659;SDS011;3872;47.902;8.162;2023-04-03T15:10:15;5.30;;;3.37;;
7659;SDS011;3872;47.902;8.162;2023-04-03T15:12:43;4.73;;;2.83;;
7659;SDS011;3872;47.902;8.162;2023-04-03T15:15:11;5.00;;;2.67;;
7659;SDS011;3872;47.902;8.162;2023-04-03T15:17:38;4.83;;;2.63;;
7659;SDS011;3872;47.902;8.162;2023-04-03T15:20:10;11.27;;;2.80;;
7659;SDS011;3872;47.902;8.162;2023-04-03T15:22:38;5.07;;;2.50;;
7659;SDS011;3872;47.902;8.162;2023-04-03T15:25:05;5.47;;;2.70;;
7659;SDS011;3872;47.902;8.162;2023-04-03T15:27:32;4.87;;;2.40;;
7659;SDS011;3872;47.902;8.162;2023-04-03T15:29:58;5.63;;;2.53;;
7659;SDS011;3872;47.902;8.162;2023-04-03T15:32:25;4.37;;;2.50;;
7659;SDS011;3872;47.902;8.162;2023-04-03T15:34:52;7.90;;;3.03;;
7659;SDS011;3872;47.902;8.162;2023-04-03T15:37:19;5.03;;;2.50;;
7659;SDS011;3872;47.902;8.162;2023-04-03T15:39:46;4.87;;;2.00;;
7659;SDS011;3872;47.902;8.162;2023-04-03T15:42:12;5.53;;;2.60;;
7659;SDS011;3872;47.902;8.162;2023-04-03T15:44:39;4.50;;;2.10;;
7659;SDS011;3872;47.902;8.162;2023-04-03T15:47:06;4.73;;;2.60;;
7659;SDS011;3872;47.902;8.162;2023-04-03T15:49:34;6.07;;;2.53;;